createdAt,value
2023-02-19T00:00:34.106Z,16.48
2023-02-19T00:01:46.887Z,15.45
2023-02-19T00:02:58.319Z,14.90
2023-02-19T00:04:14.400Z,12.05
2023-02-19T00:05:25.818Z,15.80
2023-02-19T00:06:37.332Z,16.88
2023-02-19T00:07:48.737Z,19.15
2023-02-19T00:09:00.463Z,16.05
2023-02-19T00:10:11.900Z,13.15
2023-02-19T00:11:24.482Z,11.57
2023-02-19T00:12:36.008Z,11.48
2023-02-19T00:13:48.698Z,12.88
2023-02-19T00:15:00.177Z,10.15
2023-02-19T00:16:19.289Z,10.43
2023-02-19T00:17:31.307Z,9.00
2023-02-19T00:18:43.194Z,9.32
2023-02-19T00:19:54.731Z,8.45
2023-02-19T00:21:06.285Z,6.40
2023-02-19T00:22:17.886Z,7.43
2023-02-19T00:23:29.422Z,7.40
2023-02-19T00:24:40.851Z,6.70
2023-02-19T00:25:52.362Z,8.35
2023-02-19T00:27:03.787Z,8.55
2023-02-19T00:28:15.242Z,8.50
2023-02-19T00:29:27.515Z,9.15
2023-02-19T00:30:38.998Z,7.78
2023-02-19T00:31:50.580Z,7.50
2023-02-19T00:33:02.048Z,7.00
2023-02-19T00:34:13.854Z,7.93
2023-02-19T00:35:25.272Z,7.95
2023-02-19T00:36:37.769Z,8.05
2023-02-19T00:37:49.365Z,8.77
2023-02-19T00:39:00.814Z,6.95
2023-02-19T00:40:12.388Z,6.78
2023-02-19T00:41:24.596Z,7.63
2023-02-19T00:42:36.013Z,7.60
2023-02-19T00:44:04.700Z,8.35
2023-02-19T00:45:16.167Z,7.07
2023-02-19T00:46:29.315Z,7.32
2023-02-19T00:47:40.778Z,7.20
2023-02-19T00:48:52.689Z,7.85
2023-02-19T00:50:04.171Z,7.07
2023-02-19T00:51:16.050Z,6.00
2023-02-19T00:52:27.486Z,8.65
2023-02-19T00:53:39.013Z,7.75
2023-02-19T00:54:50.439Z,6.95
2023-02-19T00:56:01.903Z,7.57
2023-02-19T00:57:13.320Z,7.50
2023-02-19T00:58:24.764Z,7.20
2023-02-19T00:59:36.940Z,7.78
2023-02-19T01:00:48.392Z,7.72
2023-02-19T01:01:59.977Z,7.93
2023-02-19T01:03:11.422Z,7.43
2023-02-19T01:04:22.888Z,7.47
2023-02-19T01:05:34.316Z,6.82
2023-02-19T01:06:45.754Z,7.15
2023-02-19T01:07:57.249Z,4.68
2023-02-19T01:09:08.692Z,5.53
2023-02-19T01:10:20.107Z,4.28
2023-02-19T01:11:31.644Z,3.78
2023-02-19T01:12:43.112Z,4.85
2023-02-19T01:13:58.489Z,5.00
2023-02-19T01:15:10.070Z,4.82
2023-02-19T01:16:23.965Z,4.80
2023-02-19T01:17:35.951Z,5.60
2023-02-19T01:18:48.024Z,5.25
2023-02-19T01:19:59.467Z,4.70
2023-02-19T01:21:15.929Z,5.70
2023-02-19T01:22:27.404Z,4.35
2023-02-19T01:23:38.990Z,5.60
2023-02-19T01:24:50.440Z,4.95
2023-02-19T01:26:06.340Z,4.53
2023-02-19T01:27:17.816Z,4.40
2023-02-19T01:28:29.614Z,5.65
2023-02-19T01:29:42.306Z,5.90
2023-02-19T01:30:53.974Z,5.30
2023-02-19T01:32:05.699Z,5.13
2023-02-19T01:33:17.241Z,4.55
2023-02-19T01:34:33.297Z,5.03
2023-02-19T01:35:44.780Z,5.15
2023-02-19T01:36:56.258Z,5.45
2023-02-19T01:38:08.366Z,6.25
2023-02-19T01:39:19.784Z,5.68
2023-02-19T01:40:31.186Z,4.95
2023-02-19T01:41:43.363Z,5.35
2023-02-19T01:42:54.807Z,7.70
2023-02-19T01:44:08.073Z,6.93
2023-02-19T01:45:27.754Z,8.40
2023-02-19T01:46:40.336Z,9.95
2023-02-19T01:47:55.371Z,11.77
2023-02-19T01:49:06.790Z,14.43
2023-02-19T01:50:18.423Z,13.13
2023-02-19T01:51:31.112Z,14.25
2023-02-19T01:52:42.598Z,14.50
2023-02-19T01:53:56.484Z,16.42
2023-02-19T01:55:10.784Z,26.38
2023-02-19T01:56:23.324Z,14.18
2023-02-19T01:57:38.173Z,11.88
2023-02-19T01:58:49.854Z,9.82
2023-02-19T02:00:08.976Z,11.93
2023-02-19T02:01:20.405Z,11.88
2023-02-19T02:02:31.864Z,10.82
2023-02-19T02:03:45.327Z,11.50
2023-02-19T02:04:57.444Z,6.40
2023-02-19T02:06:15.957Z,6.05
2023-02-19T02:07:46.133Z,9.35
2023-02-19T02:09:16.959Z,7.57
2023-02-19T02:10:28.444Z,6.07
2023-02-19T02:11:42.348Z,5.97
2023-02-19T02:12:56.892Z,5.90
2023-02-19T02:14:08.491Z,5.00
2023-02-19T02:15:20.019Z,5.00
2023-02-19T02:16:31.686Z,5.47
2023-02-19T02:17:43.183Z,4.43
2023-02-19T02:19:12.746Z,5.57
2023-02-19T02:20:24.181Z,4.65
2023-02-19T02:21:44.047Z,6.15
2023-02-19T02:23:15.725Z,4.80
2023-02-19T02:24:42.530Z,6.47
2023-02-19T02:26:03.213Z,6.65
2023-02-19T02:27:17.887Z,7.43
2023-02-19T02:28:47.638Z,7.80
2023-02-19T02:29:59.115Z,6.97
2023-02-19T02:31:15.031Z,7.03
2023-02-19T02:32:33.102Z,6.45
2023-02-19T02:33:50.379Z,9.00
2023-02-19T02:35:05.611Z,12.27
2023-02-19T02:36:18.175Z,13.50
2023-02-19T02:37:34.621Z,10.13
2023-02-19T02:38:47.040Z,17.98
2023-02-19T02:39:58.655Z,11.43
2023-02-19T02:41:10.541Z,8.63
2023-02-19T02:42:28.275Z,15.60
2023-02-19T02:43:39.793Z,10.82
2023-02-19T02:45:09.619Z,11.13
2023-02-19T02:46:28.156Z,9.00
2023-02-19T02:47:52.607Z,9.65
2023-02-19T02:49:06.535Z,8.55
2023-02-19T02:50:17.978Z,8.60
2023-02-19T02:51:31.493Z,8.80
2023-02-19T02:53:02.620Z,9.02
2023-02-19T02:54:34.865Z,6.70
2023-02-19T02:55:48.576Z,6.10
2023-02-19T02:57:00.465Z,7.25
2023-02-19T02:58:13.055Z,7.15
2023-02-19T02:59:26.092Z,8.68
2023-02-19T03:00:56.505Z,8.38
2023-02-19T03:02:21.007Z,7.03
2023-02-19T03:03:32.655Z,6.72
2023-02-19T03:05:21.613Z,7.03
2023-02-19T03:06:34.808Z,6.57
2023-02-19T03:07:52.143Z,6.82
2023-02-19T03:09:21.383Z,7.55
2023-02-19T03:10:48.064Z,7.72
2023-02-19T03:12:21.372Z,7.45
2023-02-19T03:13:53.717Z,6.90
2023-02-19T03:15:27.686Z,7.15
2023-02-19T03:16:58.451Z,4.60
2023-02-19T03:18:30.381Z,4.72
2023-02-19T03:19:44.026Z,5.68
2023-02-19T03:20:57.870Z,5.75
2023-02-19T03:22:12.375Z,6.65
2023-02-19T03:23:46.026Z,6.60
2023-02-19T03:25:19.554Z,5.80
2023-02-19T03:26:32.896Z,6.35
2023-02-19T03:27:45.005Z,8.15
2023-02-19T03:29:16.334Z,8.57
2023-02-19T03:30:30.627Z,11.30
2023-02-19T03:31:43.588Z,12.50
2023-02-19T03:32:56.868Z,15.35
2023-02-19T03:34:10.213Z,13.63
2023-02-19T03:35:23.349Z,13.93
2023-02-19T03:36:44.355Z,12.82
2023-02-19T03:37:55.803Z,11.15
2023-02-19T03:39:08.584Z,11.20
2023-02-19T03:40:20.729Z,12.32
2023-02-19T03:41:35.327Z,12.65
2023-02-19T03:42:58.846Z,11.13
2023-02-19T03:44:18.771Z,10.45
2023-02-19T03:45:52.406Z,12.10
2023-02-19T03:47:19.829Z,12.50
2023-02-19T03:48:35.745Z,11.32
2023-02-19T03:50:05.967Z,14.43
2023-02-19T03:51:38.055Z,13.35
2023-02-19T03:53:09.705Z,11.35
2023-02-19T03:54:32.523Z,10.63
2023-02-19T03:55:56.268Z,10.40
2023-02-19T03:57:13.494Z,10.73
2023-02-19T03:58:28.708Z,11.13
2023-02-19T03:59:40.148Z,11.57
2023-02-19T04:00:58.917Z,14.63
2023-02-19T04:02:14.999Z,16.58
2023-02-19T04:03:34.418Z,18.27
2023-02-19T04:04:50.525Z,15.82
2023-02-19T04:06:04.745Z,11.52
2023-02-19T04:07:16.296Z,11.85
2023-02-19T04:08:28.322Z,12.88
2023-02-19T04:09:42.799Z,10.77
2023-02-19T04:10:54.782Z,8.85
2023-02-19T04:12:06.852Z,7.25
2023-02-19T04:13:20.663Z,7.03
2023-02-19T04:14:35.582Z,9.65
2023-02-19T04:15:48.365Z,9.45
2023-02-19T04:17:01.849Z,9.50
2023-02-19T04:18:25.088Z,6.72
2023-02-19T04:19:37.814Z,6.75
2023-02-19T04:20:50.472Z,6.22
2023-02-19T04:22:02.225Z,6.80
2023-02-19T04:23:15.801Z,7.18
2023-02-19T04:24:33.487Z,6.10
2023-02-19T04:25:45.772Z,5.18
2023-02-19T04:26:58.462Z,4.95
2023-02-19T04:28:09.951Z,5.18
2023-02-19T04:29:21.434Z,5.10
2023-02-19T04:30:33.055Z,5.78
2023-02-19T04:31:44.685Z,4.68
2023-02-19T04:32:56.138Z,4.70
2023-02-19T04:34:07.673Z,4.72
2023-02-19T04:35:19.122Z,5.80
2023-02-19T04:36:31.649Z,5.45
2023-02-19T04:37:43.442Z,6.90
2023-02-19T04:38:54.857Z,5.28
2023-02-19T04:40:06.540Z,4.85
2023-02-19T04:41:17.961Z,6.78
2023-02-19T04:42:29.424Z,10.30
2023-02-19T04:43:40.917Z,11.68
2023-02-19T04:44:52.361Z,13.48
2023-02-19T04:46:04.163Z,11.23
2023-02-19T04:47:19.069Z,8.27
2023-02-19T04:48:30.565Z,11.85
2023-02-19T04:49:42.008Z,14.40
2023-02-19T04:50:53.562Z,15.98
2023-02-19T04:52:05.039Z,16.58
2023-02-19T04:53:16.465Z,18.20
2023-02-19T04:54:27.907Z,17.33
2023-02-19T04:55:39.622Z,16.35
2023-02-19T04:56:51.147Z,14.30
2023-02-19T04:58:02.613Z,11.48
2023-02-19T04:59:14.016Z,12.93
2023-02-19T05:00:25.470Z,13.57
2023-02-19T05:01:36.988Z,14.10
2023-02-19T05:02:48.496Z,13.45
2023-02-19T05:03:59.949Z,10.60
2023-02-19T05:05:11.574Z,10.18
2023-02-19T05:06:23.038Z,11.20
2023-02-19T05:07:34.486Z,10.77
2023-02-19T05:08:45.989Z,13.00
2023-02-19T05:09:58.485Z,14.05
2023-02-19T05:11:11.234Z,11.82
2023-02-19T05:12:22.869Z,13.45
2023-02-19T05:13:34.454Z,13.23
2023-02-19T05:14:45.938Z,12.40
2023-02-19T05:16:01.513Z,14.45
2023-02-19T05:17:12.990Z,14.27
2023-02-19T05:18:24.811Z,14.27
2023-02-19T05:19:36.304Z,13.75
2023-02-19T05:20:47.747Z,14.43
2023-02-19T05:21:59.193Z,14.10
2023-02-19T05:23:10.610Z,17.38
2023-02-19T05:24:24.402Z,16.42
2023-02-19T05:25:35.850Z,18.83
2023-02-19T05:26:48.323Z,11.32
2023-02-19T05:28:17.050Z,14.05
2023-02-19T05:29:30.453Z,13.38
2023-02-19T05:30:42.061Z,11.10
2023-02-19T05:31:53.657Z,12.10
2023-02-19T05:33:05.225Z,15.07
2023-02-19T05:34:16.710Z,15.38
2023-02-19T05:35:28.165Z,17.13
2023-02-19T05:36:39.614Z,15.85
2023-02-19T05:37:51.056Z,15.07
2023-02-19T05:39:02.615Z,14.50
2023-02-19T05:40:14.152Z,14.55
2023-02-19T05:41:26.780Z,21.02
2023-02-19T05:42:38.220Z,19.67
2023-02-19T05:43:50.386Z,18.10
2023-02-19T05:45:01.886Z,14.77
2023-02-19T05:46:14.575Z,12.68
2023-02-19T05:47:26.264Z,12.40
2023-02-19T05:48:37.733Z,17.35
2023-02-19T05:49:49.206Z,19.42
2023-02-19T05:51:04.413Z,19.65
2023-02-19T05:52:15.964Z,22.45
2023-02-19T05:53:27.416Z,19.95
2023-02-19T05:54:38.904Z,18.10
2023-02-19T05:55:50.340Z,16.58
2023-02-19T05:57:01.840Z,13.15
2023-02-19T05:58:13.610Z,14.60
2023-02-19T05:59:25.802Z,18.80
2023-02-19T06:00:37.241Z,21.85
2023-02-19T06:01:49.940Z,20.67
2023-02-19T06:03:01.886Z,19.98
2023-02-19T06:04:14.190Z,20.90
2023-02-19T06:05:25.763Z,21.25
2023-02-19T06:06:37.552Z,20.95
2023-02-19T06:07:50.547Z,19.67
2023-02-19T06:09:02.046Z,18.67
2023-02-19T06:10:13.544Z,19.13
2023-02-19T06:11:25.458Z,21.77
2023-02-19T06:12:37.319Z,23.48
2023-02-19T06:13:50.285Z,22.67
2023-02-19T06:15:01.832Z,27.20
2023-02-19T06:16:13.385Z,26.02
2023-02-19T06:17:24.993Z,30.17
2023-02-19T06:18:36.785Z,30.35
2023-02-19T06:19:48.208Z,43.03
2023-02-19T06:21:02.968Z,31.73
2023-02-19T06:22:15.405Z,20.70
2023-02-19T06:23:28.087Z,17.98
2023-02-19T06:24:39.656Z,18.70
2023-02-19T06:25:51.133Z,23.20
2023-02-19T06:27:05.117Z,20.25
2023-02-19T06:28:16.592Z,20.50
2023-02-19T06:29:28.016Z,25.20
2023-02-19T06:30:39.693Z,24.90
2023-02-19T06:31:51.308Z,24.45
2023-02-19T06:33:02.964Z,25.15
2023-02-19T06:34:14.435Z,25.42
2023-02-19T06:35:25.899Z,23.52
2023-02-19T06:36:37.362Z,40.47
2023-02-19T06:37:49.328Z,26.15
2023-02-19T06:39:01.307Z,26.58
2023-02-19T06:40:12.855Z,22.58
2023-02-19T06:41:24.314Z,24.50
2023-02-19T06:42:36.209Z,18.25
2023-02-19T06:43:47.761Z,16.73
2023-02-19T06:44:59.208Z,16.50
2023-02-19T06:46:11.919Z,17.40
2023-02-19T06:47:25.542Z,15.95
2023-02-19T06:48:38.663Z,15.55
2023-02-19T06:49:50.336Z,17.58
2023-02-19T06:51:01.995Z,18.48
2023-02-19T06:52:13.500Z,18.10
2023-02-19T06:53:25.012Z,16.35
2023-02-19T06:54:36.501Z,15.57
2023-02-19T06:55:56.843Z,14.85
2023-02-19T06:57:08.359Z,13.02
2023-02-19T06:58:20.932Z,14.60
2023-02-19T06:59:32.350Z,15.75
2023-02-19T07:00:43.831Z,14.93
2023-02-19T07:01:56.209Z,14.13
2023-02-19T07:03:07.751Z,13.75
2023-02-19T07:04:19.418Z,15.40
2023-02-19T07:05:30.846Z,17.23
2023-02-19T07:06:42.383Z,18.58
2023-02-19T07:07:54.263Z,16.38
2023-02-19T07:09:06.816Z,17.25
2023-02-19T07:10:18.256Z,12.48
2023-02-19T07:11:30.935Z,12.25
2023-02-19T07:12:42.391Z,11.30
2023-02-19T07:13:57.220Z,11.23
2023-02-19T07:15:08.935Z,12.88
2023-02-19T07:16:20.485Z,11.15
2023-02-19T07:17:31.936Z,12.68
2023-02-19T07:18:43.422Z,15.13
2023-02-19T07:19:54.831Z,14.43
2023-02-19T07:21:11.061Z,13.65
2023-02-19T07:22:22.734Z,14.32
2023-02-19T07:23:34.292Z,13.38
2023-02-19T07:24:47.864Z,13.05
2023-02-19T07:25:59.645Z,12.95
2023-02-19T07:27:11.168Z,13.18
2023-02-19T07:28:22.707Z,15.57
2023-02-19T07:29:34.211Z,16.67
2023-02-19T07:30:45.999Z,17.13
2023-02-19T07:31:57.697Z,16.80
2023-02-19T07:33:10.683Z,17.48
2023-02-19T07:34:22.235Z,15.15
2023-02-19T07:35:33.722Z,16.42
2023-02-19T07:36:45.131Z,17.30
2023-02-19T07:37:56.742Z,16.55
2023-02-19T07:39:10.138Z,17.48
2023-02-19T07:40:21.919Z,17.10
2023-02-19T07:41:33.691Z,16.60
2023-02-19T07:42:45.204Z,21.15
2023-02-19T07:43:56.717Z,23.48
2023-02-19T07:45:08.196Z,22.63
2023-02-19T07:46:19.996Z,28.48
2023-02-19T07:47:31.517Z,23.05
2023-02-19T07:48:43.510Z,21.80
2023-02-19T07:49:55.014Z,18.60
2023-02-19T07:51:08.016Z,18.67
2023-02-19T07:52:19.854Z,11.25
2023-02-19T07:53:31.768Z,9.88
2023-02-19T07:54:43.252Z,10.77
2023-02-19T07:55:58.679Z,9.05
2023-02-19T07:57:10.217Z,10.15
2023-02-19T07:58:22.169Z,9.68
2023-02-19T07:59:34.648Z,8.75
2023-02-19T08:00:46.221Z,8.68
2023-02-19T08:02:16.500Z,10.45
2023-02-19T08:03:29.130Z,10.18
2023-02-19T08:04:40.688Z,11.52
2023-02-19T08:05:54.007Z,10.57
2023-02-19T08:07:05.695Z,9.98
2023-02-19T08:08:17.647Z,9.10
2023-02-19T08:09:29.278Z,8.93
2023-02-19T08:10:59.451Z,10.27
2023-02-19T08:12:29.988Z,8.65
2023-02-19T08:13:41.564Z,8.43
2023-02-19T08:14:53.121Z,8.23
2023-02-19T08:16:17.035Z,7.90
2023-02-19T08:17:31.854Z,7.90
2023-02-19T08:18:43.889Z,8.30
2023-02-19T08:19:55.435Z,8.20
2023-02-19T08:21:06.982Z,6.93
2023-02-19T08:22:18.564Z,7.07
2023-02-19T08:23:29.998Z,8.32
2023-02-19T08:24:43.049Z,9.50
2023-02-19T08:25:58.978Z,9.60
2023-02-19T08:27:10.479Z,9.93
2023-02-19T08:28:21.960Z,7.65
2023-02-19T08:29:35.073Z,7.18
2023-02-19T08:30:47.069Z,7.00
2023-02-19T08:31:58.644Z,7.13
2023-02-19T08:33:10.517Z,6.47
2023-02-19T08:34:22.217Z,6.85
2023-02-19T08:35:36.798Z,8.70
2023-02-19T08:36:48.531Z,8.05
2023-02-19T08:37:59.955Z,9.18
2023-02-19T08:39:11.440Z,8.65
2023-02-19T08:40:23.019Z,8.40
2023-02-19T08:41:34.539Z,8.05
2023-02-19T08:42:45.955Z,8.93
2023-02-19T08:43:57.424Z,7.90
2023-02-19T08:45:09.213Z,8.65
2023-02-19T08:46:21.326Z,7.93
2023-02-19T08:47:34.962Z,7.60
2023-02-19T08:48:46.513Z,8.30
2023-02-19T08:49:57.986Z,8.18
2023-02-19T08:51:11.166Z,7.00
2023-02-19T08:52:22.913Z,7.03
2023-02-19T08:53:35.046Z,6.53
2023-02-19T08:54:46.588Z,6.75
2023-02-19T08:55:58.196Z,7.10
2023-02-19T08:57:09.657Z,6.95
2023-02-19T08:58:21.336Z,6.78
2023-02-19T08:59:32.762Z,6.80
2023-02-19T09:00:44.374Z,7.72
2023-02-19T09:01:55.814Z,6.80
2023-02-19T09:03:07.313Z,6.82
2023-02-19T09:04:18.844Z,5.63
2023-02-19T09:05:30.318Z,5.93
2023-02-19T09:06:41.794Z,5.55
2023-02-19T09:07:53.245Z,6.15
2023-02-19T09:09:04.998Z,5.28
2023-02-19T09:10:16.459Z,5.55
2023-02-19T09:11:27.901Z,6.72
2023-02-19T09:12:40.504Z,11.25
2023-02-19T09:13:51.924Z,7.40
2023-02-19T09:15:03.859Z,6.90
2023-02-19T09:16:15.285Z,6.35
2023-02-19T09:17:27.439Z,6.55
2023-02-19T09:18:38.977Z,5.90
2023-02-19T09:19:50.939Z,7.45
2023-02-19T09:21:04.739Z,7.05
2023-02-19T09:22:16.229Z,7.40
2023-02-19T09:23:27.956Z,7.75
2023-02-19T09:24:39.576Z,8.00
2023-02-19T09:25:56.763Z,7.78
2023-02-19T09:27:08.194Z,8.10
2023-02-19T09:28:21.213Z,8.80
2023-02-19T09:29:34.516Z,6.55
2023-02-19T09:30:45.997Z,6.85
2023-02-19T09:32:01.453Z,7.93
2023-02-19T09:33:12.932Z,8.38
2023-02-19T09:34:25.058Z,6.50
2023-02-19T09:35:42.529Z,6.85
2023-02-19T09:36:54.609Z,6.88
2023-02-19T09:38:06.162Z,6.88
2023-02-19T09:39:17.929Z,4.93
2023-02-19T09:40:32.267Z,5.72
2023-02-19T09:41:47.952Z,4.25
2023-02-19T09:43:00.959Z,5.30
2023-02-19T09:44:39.561Z,4.90
2023-02-19T09:45:58.645Z,4.38
2023-02-19T09:47:20.444Z,3.67
2023-02-19T09:48:32.193Z,3.95
2023-02-19T09:49:49.994Z,3.90
2023-02-19T09:51:02.195Z,4.53
2023-02-19T09:52:16.827Z,4.95
2023-02-19T09:53:34.673Z,3.63
2023-02-19T09:54:46.967Z,5.97
2023-02-19T09:55:59.182Z,6.85
2023-02-19T09:57:13.846Z,4.32
2023-02-19T09:58:33.393Z,5.07
2023-02-19T09:59:59.094Z,5.55
2023-02-19T10:01:11.418Z,5.47
2023-02-19T10:02:24.613Z,6.20
2023-02-19T10:03:39.357Z,4.63
2023-02-19T10:04:51.581Z,4.40
2023-02-19T10:06:06.200Z,5.03
2023-02-19T10:07:17.672Z,5.40
2023-02-19T10:08:31.448Z,4.00
2023-02-19T10:09:45.261Z,2.80
2023-02-19T10:10:58.000Z,4.03
2023-02-19T10:12:16.310Z,3.80
2023-02-19T10:13:33.661Z,4.68
2023-02-19T10:14:47.636Z,4.53
2023-02-19T10:16:00.865Z,5.55
2023-02-19T10:17:20.887Z,4.65
2023-02-19T10:18:36.649Z,4.68
2023-02-19T10:19:48.109Z,4.10
2023-02-19T10:21:03.077Z,4.32
2023-02-19T10:22:14.557Z,5.07
2023-02-19T10:23:26.338Z,5.03
2023-02-19T10:24:38.656Z,4.80
2023-02-19T10:25:54.173Z,5.88
2023-02-19T10:27:09.458Z,4.28
2023-02-19T10:28:22.732Z,5.22
2023-02-19T10:29:34.192Z,5.40
2023-02-19T10:30:49.382Z,4.75
2023-02-19T10:32:23.914Z,4.80
2023-02-19T10:33:47.540Z,5.22
2023-02-19T10:35:16.055Z,4.93
2023-02-19T10:36:36.387Z,4.47
2023-02-19T10:37:50.108Z,4.38
2023-02-19T10:39:06.104Z,4.97
2023-02-19T10:40:19.130Z,4.80
2023-02-19T10:41:30.909Z,5.88
2023-02-19T10:42:45.685Z,5.32
2023-02-19T10:44:07.254Z,5.40
2023-02-19T10:45:20.066Z,5.07
2023-02-19T10:46:33.244Z,4.10
2023-02-19T10:47:46.462Z,4.38
2023-02-19T10:49:05.024Z,4.88
2023-02-19T10:50:39.325Z,3.60
2023-02-19T10:51:52.496Z,4.35
2023-02-19T10:53:06.253Z,4.07
2023-02-19T10:54:19.893Z,4.03
2023-02-19T10:55:32.979Z,3.80
2023-02-19T10:56:44.565Z,3.17
2023-02-19T10:57:56.531Z,3.07
2023-02-19T10:59:15.973Z,3.00
2023-02-19T11:00:30.209Z,3.13
2023-02-19T11:01:58.450Z,2.73
2023-02-19T11:03:27.878Z,2.90
2023-02-19T11:04:39.382Z,3.20
2023-02-19T11:06:01.344Z,3.73
2023-02-19T11:07:15.364Z,2.60
2023-02-19T11:08:26.834Z,3.57
2023-02-19T11:09:39.610Z,3.17
2023-02-19T11:10:51.199Z,4.13
2023-02-19T11:12:05.068Z,2.33
2023-02-19T11:13:26.819Z,2.33
2023-02-19T11:14:42.440Z,2.60
2023-02-19T11:15:55.772Z,2.90
2023-02-19T11:17:07.685Z,2.93
2023-02-19T11:18:29.974Z,3.30
2023-02-19T11:19:43.746Z,3.17
2023-02-19T11:20:59.054Z,2.83
2023-02-19T11:22:25.430Z,2.47
2023-02-19T11:23:38.566Z,2.70
2023-02-19T11:24:56.649Z,2.80
2023-02-19T11:26:18.521Z,2.37
2023-02-19T11:27:30.276Z,4.50
2023-02-19T11:28:43.305Z,3.97
2023-02-19T11:29:54.843Z,2.73
2023-02-19T11:31:21.777Z,2.87
2023-02-19T11:32:33.297Z,2.47
2023-02-19T11:33:47.450Z,2.77
2023-02-19T11:35:18.552Z,2.77
2023-02-19T11:36:34.405Z,2.90
2023-02-19T11:37:56.864Z,3.30
2023-02-19T11:39:17.431Z,2.40
2023-02-19T11:40:49.172Z,1.73
2023-02-19T11:42:12.354Z,2.03
2023-02-19T11:43:23.786Z,2.70
2023-02-19T11:44:39.306Z,2.17
2023-02-19T11:45:56.634Z,2.20
2023-02-19T11:47:11.245Z,2.50
2023-02-19T11:48:25.483Z,2.20
2023-02-19T11:49:45.896Z,2.33
2023-02-19T11:50:57.627Z,2.00
2023-02-19T11:52:23.140Z,2.90
2023-02-19T11:53:37.320Z,2.77
2023-02-19T11:54:56.281Z,2.60
2023-02-19T11:56:13.550Z,2.40
2023-02-19T11:57:48.067Z,2.80
2023-02-19T11:59:05.011Z,2.87
2023-02-19T12:00:24.978Z,3.20
2023-02-19T12:01:48.545Z,3.10
2023-02-19T12:03:03.170Z,2.23
2023-02-19T12:04:33.314Z,2.43
2023-02-19T12:06:09.820Z,2.70
2023-02-19T12:07:30.037Z,2.40
2023-02-19T12:08:50.340Z,3.00
2023-02-19T12:10:05.774Z,2.87
2023-02-19T12:11:20.046Z,3.23
2023-02-19T12:12:40.735Z,2.47
2023-02-19T12:14:01.027Z,2.40
2023-02-19T12:15:16.686Z,13.70
2023-02-19T12:16:46.695Z,13.30
2023-02-19T12:18:04.618Z,6.63
2023-02-19T12:19:19.179Z,11.60
2023-02-19T12:20:37.417Z,8.77
2023-02-19T12:22:07.647Z,75.23
2023-02-19T12:23:35.121Z,34.33
2023-02-19T12:24:47.023Z,10.33
2023-02-19T12:26:22.125Z,7.17
2023-02-19T12:27:33.578Z,7.67
2023-02-19T12:29:00.684Z,6.10
2023-02-19T12:30:27.504Z,5.50
2023-02-19T12:31:39.100Z,4.53
2023-02-19T12:33:13.874Z,4.73
2023-02-19T12:34:28.992Z,4.27
2023-02-19T12:35:43.452Z,4.10
2023-02-19T12:37:12.898Z,3.70
2023-02-19T12:38:33.515Z,4.70
2023-02-19T12:39:57.384Z,4.57
2023-02-19T12:41:17.878Z,4.30
2023-02-19T12:42:50.207Z,3.07
2023-02-19T12:44:05.726Z,2.93
2023-02-19T12:45:26.908Z,2.87
2023-02-19T12:46:39.582Z,2.97
2023-02-19T12:47:59.035Z,4.83
2023-02-19T12:49:26.184Z,3.50
2023-02-19T12:50:39.382Z,2.63
2023-02-19T12:51:55.383Z,2.40
2023-02-19T12:53:27.142Z,2.57
2023-02-19T12:54:40.917Z,2.23
2023-02-19T12:55:52.729Z,2.47
2023-02-19T12:57:04.197Z,3.03
2023-02-19T12:58:28.701Z,3.43
2023-02-19T12:59:43.133Z,2.87
2023-02-19T13:00:58.990Z,2.70
2023-02-19T13:02:20.606Z,3.23
2023-02-19T13:03:37.878Z,2.70
2023-02-19T13:04:58.175Z,2.43
2023-02-19T13:06:27.469Z,2.30
2023-02-19T13:07:43.474Z,2.87
2023-02-19T13:09:13.543Z,2.27
2023-02-19T13:10:34.008Z,1.80
2023-02-19T13:11:50.715Z,2.10
2023-02-19T13:13:06.408Z,1.80
2023-02-19T13:14:30.006Z,2.13
2023-02-19T13:15:46.377Z,2.17
2023-02-19T13:17:03.634Z,2.90
2023-02-19T13:18:20.784Z,2.80
2023-02-19T13:19:33.146Z,3.27
2023-02-19T13:20:46.631Z,3.30
2023-02-19T13:22:22.007Z,4.47
2023-02-19T13:23:56.439Z,2.30
2023-02-19T13:25:09.453Z,2.40
2023-02-19T13:26:20.915Z,2.30
2023-02-19T13:27:51.117Z,2.40
2023-02-19T13:29:21.608Z,1.87
2023-02-19T13:30:58.695Z,2.37
2023-02-19T13:32:19.111Z,2.50
2023-02-19T13:33:30.575Z,3.20
2023-02-19T13:34:51.322Z,3.37
2023-02-19T13:36:14.445Z,3.13
2023-02-19T13:37:26.291Z,2.80
2023-02-19T13:38:48.283Z,3.27
2023-02-19T13:40:18.302Z,2.67
2023-02-19T13:41:31.207Z,2.57
2023-02-19T13:43:22.347Z,3.27
2023-02-19T13:44:34.504Z,2.50
2023-02-19T13:45:46.381Z,2.30
2023-02-19T13:46:58.346Z,2.87
2023-02-19T13:48:14.176Z,3.17
2023-02-19T13:49:28.337Z,3.63
2023-02-19T13:51:06.138Z,4.77
2023-02-19T13:53:08.569Z,3.53
2023-02-19T13:54:27.364Z,6.33
2023-02-19T13:56:00.593Z,3.70
2023-02-19T13:57:28.599Z,2.90
2023-02-19T13:58:55.268Z,2.97
2023-02-19T14:00:26.748Z,3.30
2023-02-19T14:01:58.452Z,3.30
2023-02-19T14:03:28.560Z,3.37
2023-02-19T14:06:56.910Z,3.63
2023-02-19T14:09:58.270Z,4.83
2023-02-19T14:12:46.577Z,3.87
2023-02-19T14:13:59.402Z,4.30
2023-02-19T14:15:29.707Z,5.00
2023-02-19T14:16:41.481Z,4.10
2023-02-19T14:17:55.281Z,3.70
2023-02-19T14:19:38.727Z,4.00
2023-02-19T14:21:05.875Z,3.23
2023-02-19T14:22:36.187Z,3.23
2023-02-19T14:23:52.381Z,3.97
2023-02-19T14:25:06.844Z,3.77
2023-02-19T14:26:18.466Z,4.37
2023-02-19T14:27:29.991Z,4.03
2023-02-19T14:28:44.331Z,4.23
2023-02-19T14:29:55.905Z,3.70
2023-02-19T14:31:10.798Z,3.43
2023-02-19T14:32:22.609Z,3.53
2023-02-19T14:33:35.814Z,3.67
2023-02-19T14:34:47.372Z,3.00
2023-02-19T14:36:17.396Z,2.73
2023-02-19T14:37:28.944Z,3.50
2023-02-19T14:38:47.955Z,3.73
2023-02-19T14:39:59.420Z,4.53
2023-02-19T14:41:12.581Z,3.63
2023-02-19T14:42:27.694Z,3.73
2023-02-19T14:43:39.601Z,3.87
2023-02-19T14:44:53.255Z,3.90
2023-02-19T14:46:09.738Z,3.23
2023-02-19T14:47:22.589Z,2.90
2023-02-19T14:48:37.697Z,2.50
2023-02-19T14:49:55.247Z,3.73
2023-02-19T14:51:09.081Z,2.67
2023-02-19T14:52:22.703Z,1.97
2023-02-19T14:53:37.850Z,1.97
2023-02-19T14:55:06.388Z,1.60
2023-02-19T14:56:20.815Z,1.73
2023-02-19T14:57:51.306Z,1.80
2023-02-19T14:59:20.967Z,1.77
2023-02-19T15:00:37.385Z,1.83
2023-02-19T15:02:14.860Z,2.40
2023-02-19T15:03:32.135Z,1.50
2023-02-19T15:04:43.683Z,1.90
2023-02-19T15:06:03.147Z,1.90
2023-02-19T15:07:17.422Z,1.60
2023-02-19T15:08:37.081Z,1.93
2023-02-19T15:09:49.910Z,1.53
2023-02-19T15:11:02.391Z,2.07
2023-02-19T15:12:25.185Z,2.20
2023-02-19T15:13:37.696Z,2.40
2023-02-19T15:14:51.093Z,3.30
2023-02-19T15:16:02.687Z,2.90
2023-02-19T15:17:25.211Z,2.90
2023-02-19T15:18:37.667Z,2.70
2023-02-19T15:19:49.132Z,1.97
2023-02-19T15:21:02.235Z,1.37
2023-02-19T15:22:19.851Z,1.57
2023-02-19T15:23:32.959Z,0.87
2023-02-19T15:24:48.253Z,1.60
2023-02-19T15:26:00.471Z,2.60
2023-02-19T15:27:16.684Z,2.10
2023-02-19T15:28:30.248Z,1.33
2023-02-19T15:29:45.309Z,2.03
2023-02-19T15:30:56.855Z,2.70
2023-02-19T15:32:16.024Z,3.33
2023-02-19T15:33:28.141Z,2.23
2023-02-19T15:34:42.038Z,7.00
2023-02-19T15:35:55.190Z,2.37
2023-02-19T15:37:07.910Z,4.67
2023-02-19T15:38:19.600Z,4.83
2023-02-19T15:39:34.899Z,5.80
2023-02-19T15:40:47.318Z,14.07
2023-02-19T15:42:00.598Z,13.97
2023-02-19T15:43:24.179Z,3.07
2023-02-19T15:44:35.666Z,3.00
2023-02-19T15:45:47.481Z,2.33
2023-02-19T15:47:00.491Z,3.40
2023-02-19T15:48:14.911Z,5.17
2023-02-19T15:49:31.250Z,6.23
2023-02-19T15:50:46.396Z,6.07
2023-02-19T15:52:00.961Z,3.23
2023-02-19T15:53:25.993Z,2.97
2023-02-19T15:55:00.489Z,3.47
2023-02-19T15:56:28.136Z,2.50
2023-02-19T15:57:42.636Z,6.80
2023-02-19T15:58:59.683Z,8.93
2023-02-19T16:00:18.133Z,15.97
2023-02-19T16:01:30.927Z,21.93
2023-02-19T16:02:44.816Z,18.70
2023-02-19T16:03:57.045Z,9.23
2023-02-19T16:05:12.450Z,5.60
2023-02-19T16:06:25.353Z,3.83
2023-02-19T16:07:36.892Z,3.20
2023-02-19T16:09:01.824Z,6.20
2023-02-19T16:10:19.006Z,4.97
2023-02-19T16:11:38.087Z,7.13
2023-02-19T16:12:56.857Z,7.83
2023-02-19T16:14:23.753Z,7.90
2023-02-19T16:15:35.874Z,8.93
2023-02-19T16:16:48.840Z,8.30
2023-02-19T16:18:00.710Z,13.13
2023-02-19T16:19:12.467Z,5.43
2023-02-19T16:20:26.312Z,4.80
2023-02-19T16:21:38.057Z,4.53
2023-02-19T16:22:49.924Z,6.03
2023-02-19T16:24:07.383Z,4.73
2023-02-19T16:25:24.851Z,7.17
2023-02-19T16:26:40.350Z,7.97
2023-02-19T16:27:53.245Z,5.00
2023-02-19T16:29:04.692Z,4.77
2023-02-19T16:30:16.162Z,4.70
2023-02-19T16:31:29.469Z,3.70
2023-02-19T16:32:41.034Z,3.97
2023-02-19T16:33:52.571Z,3.87
2023-02-19T16:35:04.533Z,4.03
2023-02-19T16:36:16.097Z,4.10
2023-02-19T16:37:41.172Z,6.60
2023-02-19T16:38:59.351Z,6.50
2023-02-19T16:40:16.423Z,8.10
2023-02-19T16:41:28.157Z,10.30